West Farmington, Ohio
Current Conditions -  °F | °C
As of 7:51 PM on Monday 26 Jan 2015 (Local Time) from KYNG Reporting Station
Overcast Overcast  
Wind Chill: -13°   Ceiling: 900
Heat Index: -7°   Visibility: 9mi
Dew Point: -9°   Wind: 9mph
Humidity: 85%   Direction: 360°N
Pressure: 29.85"   Gusts: NA
Location:  41.39°N, 80.97°W
Report Text: KYNG 270051Z 36008KT 9SM OVC009 M07/M09 A2985 RMK AO2 SLP126 T10721094
Loading
Personal Weather Stations






























Interactive Weather Map New forecast layout! Learn more

10-Day Weather Forecast

Advertisements
Track Severe Weather on mobile